• Join FlightAware (Why Join?)
  • Login
  • US Flag 
01:55AM EDT


 

Airport Tracker/Info


-or-


 

Live Flight TrackerFlight Track Log ✈ MTN7303 ✈ 01-May-2013 ✈ KBWI - KEWR

Flight Track Log - Related Links

Times and Time Zones

All times are in EDT time to prevent confusion due to time zone crossing. See the MTN7303 flight status page for this flight to view local times or setup timezone preferences in your user account.

Time Position Orientation Groundspeed Altitude Reporting Facility
EDT Latitude Longitude Course Direction KTS MPH feet Rate Location/Type
11:17PM 39.1833 -76.6333 38° Northeast 101 116 1,000  Level Potomac TRACON
11:18PM 39.2000 -76.6167 38° Northeast 96 110 1,700 840 Climbing Potomac TRACON
11:19PM 39.2167 -76.5833 57° Northeast 90 104 2,700 780 Climbing Potomac TRACON
11:20PM 39.2333 -76.5667 38° Northeast 95 109 3,600 660 Climbing Potomac TRACON
11:21PM 39.2500 -76.5500 38° Northeast 102 117 4,100 660 Climbing Potomac TRACON
11:22PM 39.2833 -76.5167 38° Northeast 108 124 4,900 480 Climbing Potomac TRACON
11:23PM 39.3000 -76.4833 57° Northeast 125 144 5,100 60 Climbing Potomac TRACON
11:25PM 39.3500 -76.4167 46° Northeast 145 167 5,100  Level Potomac TRACON
11:26PM 39.3833 -76.3667 49° Northeast 143 165 5,100  Level Potomac TRACON
11:27PM 39.4167 -76.3333 38° Northeast 141 162 5,100  Level Potomac TRACON
11:28PM 39.4333 -76.3000 57° Northeast 142 163 5,100 -60 Level Potomac TRACON
11:29PM 39.4667 -76.2667 38° Northeast 139 160 5,000 -60 Descending Potomac TRACON
11:31PM 39.5167 -76.2000 46° Northeast 140 161 5,000  Level Philadelphia TRACON
11:32PM 39.5333 -76.1667 57° Northeast 140 161 5,000  Level Philadelphia TRACON
11:33PM 39.5667 -76.1333 38° Northeast 141 162 5,000  Level Philadelphia TRACON
11:34PM 39.6000 -76.1000 38° Northeast 141 162 5,000  Level Philadelphia TRACON
11:35PM 39.6167 -76.0667 57° Northeast 143 165 5,000  Level Philadelphia TRACON
11:36PM 39.6500 -76.0333 38° Northeast 142 163 5,000  Level Philadelphia TRACON
11:37PM 39.6667 -76.0000 57° Northeast 142 163 5,000  Level Philadelphia TRACON
11:38PM 39.7000 -75.9667 38° Northeast 142 163 5,000  Level Philadelphia TRACON
11:39PM 39.7333 -75.9167 49° Northeast 142 163 5,000  Level Philadelphia TRACON
11:40PM 39.7500 -75.8833 57° Northeast 143 165 5,000  Level Philadelphia TRACON
11:41PM 39.7833 -75.8500 38° Northeast 143 165 5,000  Level Philadelphia TRACON
11:42PM 39.8167 -75.8000 49° Northeast 144 166 5,000  Level Philadelphia TRACON
11:43PM 39.8500 -75.7667 38° Northeast 145 167 5,000  Level Philadelphia TRACON
11:44PM 39.8667 -75.7333 57° Northeast 144 166 5,000  Level Philadelphia TRACON
11:45PM 39.9000 -75.7000 37° Northeast 142 163 5,000  Level Philadelphia TRACON
11:46PM 39.9333 -75.6500 49° Northeast 139 160 5,000  Level Philadelphia TRACON
11:47PM 39.9500 -75.6167 57° Northeast 138 159 5,000  Level Philadelphia TRACON
11:48PM 39.9667 -75.5667 66° East 139 160 5,000  Level Philadelphia TRACON
11:49PM 39.9833 -75.5333 57° Northeast 139 160 5,000  Level Philadelphia TRACON
11:50PM 40.0000 -75.4833 66° East 139 160 5,000  Level Philadelphia TRACON
11:51PM 40.0167 -75.4333 66° East 140 161 5,000  Level Philadelphia TRACON
11:52PM 40.0333 -75.4000 57° Northeast 138 159 5,000  Level Philadelphia TRACON
11:53PM 40.0500 -75.3500 66° East 140 161 5,000  Level Philadelphia TRACON
11:54PM 40.0833 -75.3167 37° Northeast 140 161 5,000  Level Philadelphia TRACON
11:55PM 40.1000 -75.2667 66° East 138 159 5,000  Level Philadelphia TRACON
11:56PM 40.1167 -75.2167 66° East 139 160 5,000  Level Philadelphia TRACON
11:57PM 40.1333 -75.1667 66° East 141 162 5,000  Level Philadelphia TRACON
11:58PM 40.1667 -75.1167 49° Northeast 142 163 5,000  Level New York TRACON
11:59PM 40.1833 -75.0667 66° East 139 160 5,000  Level New York TRACON
12:00AM 40.2000 -75.0333 57° Northeast 140 161 5,000  Level New York TRACON
12:01AM 40.2167 -74.9833 66° East 137 158 5,000  Level New York TRACON
12:02AM 40.2333 -74.9333 66° East 135 155 5,000  Level New York TRACON
12:03AM 40.2500 -74.9000 57° Northeast 134 154 5,000  Level New York TRACON
12:04AM 40.2833 -74.8667 37° Northeast 134 154 5,000  Level New York TRACON
12:05AM 40.3167 -74.8333 37° Northeast 137 158 5,000  Level New York TRACON
12:06AM 40.3333 -74.8000 57° Northeast 137 158 5,000  Level New York TRACON
12:07AM 40.3667 -74.7667 37° Northeast 138 159 5,000  Level New York TRACON
12:08AM 40.3833 -74.7333 57° Northeast 146 168 5,000  Level New York TRACON
12:09AM 40.4167 -74.7000 37° Northeast 146 168 5,000  Level New York TRACON
12:10AM 40.4667 -74.6667 27° Northeast 148 170 5,000  Level New York TRACON
12:11AM 40.5000 -74.6333 37° Northeast 143 165 5,000 -240 Level New York TRACON
12:12AM 40.5167 -74.6000 57° Northeast 147 169 4,600 -540 Descending New York TRACON
12:13AM 40.5500 -74.5667 37° Northeast 155 178 4,000 -300 Descending New York TRACON
12:14AM 40.5833 -74.5167 49° Northeast 143 165 4,000  Level New York TRACON
12:15AM 40.6167 -74.5000 21° North 141 162 4,000 -120 Level New York TRACON
12:16AM 40.6500 -74.4667 37° Northeast 144 166 3,800 -480 Descending New York TRACON
12:17AM 40.6667 -74.4167 66° East 163 188 3,200 -420 Descending New York TRACON
12:18AM 40.7000 -74.3833 37° Northeast 151 174 3,000 -120 Descending New York TRACON
12:19AM 40.7333 -74.3500 37° Northeast 145 167 3,000  Level New York TRACON
12:20AM 40.7667 -74.3000 49° Northeast 146 168 3,000 -60 Level New York TRACON
12:21AM 40.7667 -74.2500 90° East 144 166 2,900 -300 Descending New York TRACON
12:22AM 40.7667 -74.2000 90° East 157 181 2,500 -540 Descending New York TRACON
12:23AM 40.7500 -74.1500 114° Southeast 164 189 1,900 -1,020 Descending New York TRACON
12:24AM 40.7167 -74.1500 180° South 168 193 500 -1,440 Descending New York TRACON
12:26AM 40.6925 -74.1687 111° Southeast  Level Estimated
12:33AM 40.6925 -74.1687 111° Southeast  Level Estimated